sensor_id;sensor_type;location;lat;lon;timestamp;temperature;humidity
37874;DHT22;23709;48.078;11.684;2022-12-18T00:58:21;-4.60;99.90
37874;DHT22;23709;48.078;11.684;2022-12-18T07:59:07;-5.00;99.90
37874;DHT22;23709;48.078;11.684;2022-12-18T08:01:39;-5.00;99.90
37874;DHT22;23709;48.078;11.684;2022-12-18T08:04:13;-5.00;99.90
37874;DHT22;23709;48.078;11.684;2022-12-18T08:06:46;-4.90;99.90
37874;DHT22;23709;48.078;11.684;2022-12-18T08:09:19;-4.80;99.90
37874;DHT22;23709;48.078;11.684;2022-12-18T08:11:51;-4.70;99.90
37874;DHT22;23709;48.078;11.684;2022-12-18T08:14:24;-4.70;99.90
37874;DHT22;23709;48.078;11.684;2022-12-18T08:16:56;-4.60;99.90
37874;DHT22;23709;48.078;11.684;2022-12-18T08:19:28;-4.50;99.90
37874;DHT22;23709;48.078;11.684;2022-12-18T08:22:00;-4.50;99.90
37874;DHT22;23709;48.078;11.684;2022-12-18T08:24:33;-4.40;99.90
37874;DHT22;23709;48.078;11.684;2022-12-18T08:27:05;-4.40;99.90
37874;DHT22;23709;48.078;11.684;2022-12-18T08:29:58;-4.50;99.90
37874;DHT22;23709;48.078;11.684;2022-12-18T08:32:30;-4.40;99.90
37874;DHT22;23709;48.078;11.684;2022-12-18T08:35:02;-4.40;99.90
37874;DHT22;23709;48.078;11.684;2022-12-18T08:37:34;-4.40;99.90
37874;DHT22;23709;48.078;11.684;2022-12-18T08:40:07;-4.40;99.90
37874;DHT22;23709;48.078;11.684;2022-12-18T08:42:39;-4.40;99.90
37874;DHT22;23709;48.078;11.684;2022-12-18T08:45:30;-4.30;99.90
37874;DHT22;23709;48.078;11.684;2022-12-18T08:48:04;-4.30;99.90
37874;DHT22;23709;48.078;11.684;2022-12-18T08:50:36;-4.20;99.90
37874;DHT22;23709;48.078;11.684;2022-12-18T08:53:08;-4.20;99.90
37874;DHT22;23709;48.078;11.684;2022-12-18T08:55:41;-4.30;99.90
37874;DHT22;23709;48.078;11.684;2022-12-18T08:58:20;-4.30;99.90
37874;DHT22;23709;48.078;11.684;2022-12-18T09:00:53;-4.30;99.90
37874;DHT22;23709;48.078;11.684;2022-12-18T09:03:26;-4.10;99.90
37874;DHT22;23709;48.078;11.684;2022-12-18T09:05:58;-4.10;99.90
37874;DHT22;23709;48.078;11.684;2022-12-18T09:08:31;-4.00;99.90
37874;DHT22;23709;48.078;11.684;2022-12-18T09:11:03;-4.00;99.90
37874;DHT22;23709;48.078;11.684;2022-12-18T09:13:36;-4.10;99.90
37874;DHT22;23709;48.078;11.684;2022-12-18T09:16:09;-4.10;99.90
37874;DHT22;23709;48.078;11.684;2022-12-18T09:18:41;-4.00;99.90
37874;DHT22;23709;48.078;11.684;2022-12-18T09:21:17;-4.00;99.90
37874;DHT22;23709;48.078;11.684;2022-12-18T09:23:51;-3.90;99.90
37874;DHT22;23709;48.078;11.684;2022-12-18T14:22:57;-4.70;99.90
37874;DHT22;23709;48.078;11.684;2022-12-18T14:25:31;-4.70;99.90
37874;DHT22;23709;48.078;11.684;2022-12-18T14:28:11;-4.70;99.90
37874;DHT22;23709;48.078;11.684;2022-12-18T14:30:46;-4.60;99.90
37874;DHT22;23709;48.078;11.684;2022-12-18T14:33:22;-4.50;99.90
37874;DHT22;23709;48.078;11.684;2022-12-18T14:35:59;-4.40;99.90
37874;DHT22;23709;48.078;11.684;2022-12-18T14:38:40;-4.40;99.90
37874;DHT22;23709;48.078;11.684;2022-12-18T14:41:17;-4.40;99.90
37874;DHT22;23709;48.078;11.684;2022-12-18T14:43:53;-4.30;99.90
37874;DHT22;23709;48.078;11.684;2022-12-18T14:49:00;-4.20;99.90
37874;DHT22;23709;48.078;11.684;2022-12-18T14:51:34;-4.20;99.90
37874;DHT22;23709;48.078;11.684;2022-12-18T14:54:16;-4.10;99.90
37874;DHT22;23709;48.078;11.684;2022-12-18T14:57:00;-4.20;99.90
37874;DHT22;23709;48.078;11.684;2022-12-18T14:59:33;-4.20;99.90
37874;DHT22;23709;48.078;11.684;2022-12-18T15:05:30;-4.20;99.90
37874;DHT22;23709;48.078;11.684;2022-12-18T15:08:26;-4.10;99.90
37874;DHT22;23709;48.078;11.684;2022-12-18T15:10:56;-4.10;99.90
37874;DHT22;23709;48.078;11.684;2022-12-18T15:13:29;-4.20;99.90
37874;DHT22;23709;48.078;11.684;2022-12-18T15:16:03;-4.20;99.90
37874;DHT22;23709;48.078;11.684;2022-12-18T15:18:41;-4.30;99.90
37874;DHT22;23709;48.078;11.684;2022-12-18T15:21:18;-4.30;99.90
37874;DHT22;23709;48.078;11.684;2022-12-18T15:23:51;-4.30;99.90
37874;DHT22;23709;48.078;11.684;2022-12-18T15:26:24;-4.20;99.90
37874;DHT22;23709;48.078;11.684;2022-12-18T15:28:57;-4.20;99.90
37874;DHT22;23709;48.078;11.684;2022-12-18T15:31:35;-4.20;99.90
37874;DHT22;23709;48.078;11.684;2022-12-18T15:36:43;-4.20;99.90
37874;DHT22;23709;48.078;11.684;2022-12-18T15:39:17;-4.10;99.90
37874;DHT22;23709;48.078;11.684;2022-12-18T15:41:49;-4.10;99.90
37874;DHT22;23709;48.078;11.684;2022-12-18T15:44:41;-4.00;99.90
37874;DHT22;23709;48.078;11.684;2022-12-18T15:47:15;-4.20;99.90
37874;DHT22;23709;48.078;11.684;2022-12-18T15:49:48;-4.10;99.90
37874;DHT22;23709;48.078;11.684;2022-12-18T15:52:21;-4.20;99.90
37874;DHT22;23709;48.078;11.684;2022-12-18T15:54:58;-4.30;99.90
37874;DHT22;23709;48.078;11.684;2022-12-18T15:57:49;-4.30;99.90
37874;DHT22;23709;48.078;11.684;2022-12-18T16:00:21;-4.40;99.90
37874;DHT22;23709;48.078;11.684;2022-12-18T16:02:54;-4.30;99.90
37874;DHT22;23709;48.078;11.684;2022-12-18T16:05:29;-4.40;99.90
37874;DHT22;23709;48.078;11.684;2022-12-18T16:08:01;-4.40;99.90
37874;DHT22;23709;48.078;11.684;2022-12-18T16:10:34;-4.40;99.90
37874;DHT22;23709;48.078;11.684;2022-12-18T16:13:10;-4.40;99.90
37874;DHT22;23709;48.078;11.684;2022-12-18T16:15:44;-4.40;99.90
37874;DHT22;23709;48.078;11.684;2022-12-18T16:18:16;-4.40;99.90
37874;DHT22;23709;48.078;11.684;2022-12-18T16:20:48;-4.30;99.90
37874;DHT22;23709;48.078;11.684;2022-12-18T16:23:20;-4.50;99.90
37874;DHT22;23709;48.078;11.684;2022-12-18T16:25:53;-4.50;99.90
37874;DHT22;23709;48.078;11.684;2022-12-18T16:28:25;-4.50;99.90
37874;DHT22;23709;48.078;11.684;2022-12-18T16:30:58;-4.50;99.90
37874;DHT22;23709;48.078;11.684;2022-12-18T16:33:30;-4.40;99.90
37874;DHT22;23709;48.078;11.684;2022-12-18T16:36:02;-4.60;99.90
37874;DHT22;23709;48.078;11.684;2022-12-18T16:38:35;-4.50;99.90
37874;DHT22;23709;48.078;11.684;2022-12-18T16:41:18;-4.40;99.90
37874;DHT22;23709;48.078;11.684;2022-12-18T16:44:03;-4.40;99.90
37874;DHT22;23709;48.078;11.684;2022-12-18T16:46:36;-4.40;99.90
37874;DHT22;23709;48.078;11.684;2022-12-18T16:49:08;-4.50;99.90
37874;DHT22;23709;48.078;11.684;2022-12-18T16:51:42;-4.50;99.90
37874;DHT22;23709;48.078;11.684;2022-12-18T16:54:15;-4.50;99.90
37874;DHT22;23709;48.078;11.684;2022-12-18T16:56:51;-4.50;99.90
37874;DHT22;23709;48.078;11.684;2022-12-18T16:59:23;-4.50;99.90
37874;DHT22;23709;48.078;11.684;2022-12-18T17:01:58;-4.50;99.90
37874;DHT22;23709;48.078;11.684;2022-12-18T17:04:31;-4.40;99.90
37874;DHT22;23709;48.078;11.684;2022-12-18T17:07:04;-4.40;99.90
37874;DHT22;23709;48.078;11.684;2022-12-18T17:09:37;-4.40;99.90
37874;DHT22;23709;48.078;11.684;2022-12-18T17:12:09;-4.30;99.90
37874;DHT22;23709;48.078;11.684;2022-12-18T17:14:42;-4.30;99.90
37874;DHT22;23709;48.078;11.684;2022-12-18T17:17:16;-4.30;99.90
37874;DHT22;23709;48.078;11.684;2022-12-18T17:19:54;-4.30;99.90
37874;DHT22;23709;48.078;11.684;2022-12-18T17:22:26;-4.30;99.90
37874;DHT22;23709;48.078;11.684;2022-12-18T17:24:59;-4.30;99.90
37874;DHT22;23709;48.078;11.684;2022-12-18T17:27:31;-4.20;99.90
37874;DHT22;23709;48.078;11.684;2022-12-18T17:30:04;-4.30;99.90
37874;DHT22;23709;48.078;11.684;2022-12-18T17:32:36;-4.20;99.90
37874;DHT22;23709;48.078;11.684;2022-12-18T17:35:09;-4.30;99.90
37874;DHT22;23709;48.078;11.684;2022-12-18T17:37:41;-4.30;99.90
37874;DHT22;23709;48.078;11.684;2022-12-18T17:40:13;-4.30;99.90
37874;DHT22;23709;48.078;11.684;2022-12-18T17:42:46;-4.40;99.90
37874;DHT22;23709;48.078;11.684;2022-12-18T17:45:18;-4.40;99.90
37874;DHT22;23709;48.078;11.684;2022-12-18T17:47:50;-4.50;99.90
37874;DHT22;23709;48.078;11.684;2022-12-18T17:50:34;-4.40;99.90
37874;DHT22;23709;48.078;11.684;2022-12-18T17:53:07;-4.50;99.90
37874;DHT22;23709;48.078;11.684;2022-12-18T17:55:39;-4.50;99.90
37874;DHT22;23709;48.078;11.684;2022-12-18T17:58:11;-4.60;99.90
37874;DHT22;23709;48.078;11.684;2022-12-18T18:00:44;-4.60;99.90
37874;DHT22;23709;48.078;11.684;2022-12-18T18:03:17;-4.60;99.90
37874;DHT22;23709;48.078;11.684;2022-12-18T18:05:54;-4.70;99.90
37874;DHT22;23709;48.078;11.684;2022-12-18T18:08:28;-4.70;99.90
37874;DHT22;23709;48.078;11.684;2022-12-18T18:11:06;-4.70;99.90
37874;DHT22;23709;48.078;11.684;2022-12-18T18:14:11;-4.70;99.90
37874;DHT22;23709;48.078;11.684;2022-12-18T18:16:48;-4.60;99.90
37874;DHT22;23709;48.078;11.684;2022-12-18T18:19:23;-4.60;99.90
37874;DHT22;23709;48.078;11.684;2022-12-18T18:21:55;-4.60;99.90
37874;DHT22;23709;48.078;11.684;2022-12-18T18:24:28;-4.60;99.90
37874;DHT22;23709;48.078;11.684;2022-12-18T18:27:00;-4.60;99.90
37874;DHT22;23709;48.078;11.684;2022-12-18T18:29:33;-4.60;99.90
37874;DHT22;23709;48.078;11.684;2022-12-18T18:32:05;-4.70;99.90
37874;DHT22;23709;48.078;11.684;2022-12-18T18:34:38;-4.70;99.90
37874;DHT22;23709;48.078;11.684;2022-12-18T18:37:11;-4.60;99.90
37874;DHT22;23709;48.078;11.684;2022-12-18T18:39:44;-4.60;99.90
37874;DHT22;23709;48.078;11.684;2022-12-18T18:42:16;-4.60;99.90
37874;DHT22;23709;48.078;11.684;2022-12-18T18:44:48;-4.60;99.90
37874;DHT22;23709;48.078;11.684;2022-12-18T18:47:21;-4.50;99.90
37874;DHT22;23709;48.078;11.684;2022-12-18T18:49:53;-4.60;99.90
37874;DHT22;23709;48.078;11.684;2022-12-18T18:52:26;-4.60;99.90
37874;DHT22;23709;48.078;11.684;2022-12-18T18:54:59;-4.60;99.90
37874;DHT22;23709;48.078;11.684;2022-12-18T18:57:44;-4.70;99.90
37874;DHT22;23709;48.078;11.684;2022-12-18T19:00:16;-4.70;99.90
37874;DHT22;23709;48.078;11.684;2022-12-18T19:02:49;-4.60;99.90
37874;DHT22;23709;48.078;11.684;2022-12-18T19:05:24;-4.70;99.90
37874;DHT22;23709;48.078;11.684;2022-12-18T19:07:57;-4.70;99.90
37874;DHT22;23709;48.078;11.684;2022-12-18T19:10:29;-4.70;99.90
37874;DHT22;23709;48.078;11.684;2022-12-18T19:13:02;-4.80;99.90
37874;DHT22;23709;48.078;11.684;2022-12-18T19:15:55;-4.80;99.90
37874;DHT22;23709;48.078;11.684;2022-12-18T19:18:27;-4.80;99.90
37874;DHT22;23709;48.078;11.684;2022-12-18T19:21:02;-4.80;99.90
37874;DHT22;23709;48.078;11.684;2022-12-18T19:23:35;-4.80;99.90
37874;DHT22;23709;48.078;11.684;2022-12-18T19:26:08;-4.90;99.90
37874;DHT22;23709;48.078;11.684;2022-12-18T19:29:04;-4.80;99.90
37874;DHT22;23709;48.078;11.684;2022-12-18T19:31:37;-4.80;99.90
